createdAt,value
2018-11-11T00:00:43.398Z,51.60
2018-11-11T00:03:11.156Z,55.87
2018-11-11T00:05:39.107Z,54.40
2018-11-11T00:08:06.674Z,53.60
2018-11-11T00:10:34.366Z,54.93
2018-11-11T00:13:02.254Z,54.57
2018-11-11T00:15:30.194Z,52.87
2018-11-11T00:17:58.011Z,52.77
2018-11-11T00:20:25.808Z,52.63
2018-11-11T00:22:53.527Z,52.00
2018-11-11T00:25:21.014Z,52.53
2018-11-11T00:27:48.858Z,53.43
2018-11-11T00:30:17.536Z,50.67
2018-11-11T00:32:45.068Z,53.20
2018-11-11T00:35:12.805Z,52.87
2018-11-11T00:37:40.800Z,55.50
2018-11-11T00:40:09.682Z,55.90
2018-11-11T00:42:37.424Z,55.37
2018-11-11T00:45:05.795Z,55.83
2018-11-11T00:47:33.363Z,55.63
2018-11-11T00:50:01.216Z,55.07
2018-11-11T00:52:28.898Z,55.03
2018-11-11T00:54:56.617Z,55.53
2018-11-11T00:57:24.800Z,57.50
2018-11-11T00:59:52.893Z,52.63
2018-11-11T01:02:20.751Z,54.20
2018-11-11T01:04:48.485Z,53.93
2018-11-11T01:07:16.215Z,55.53
2018-11-11T01:09:43.736Z,53.47
2018-11-11T01:12:11.460Z,52.57
2018-11-11T01:14:39.158Z,54.57
2018-11-11T01:17:07.106Z,54.07
2018-11-11T01:19:34.950Z,53.73
2018-11-11T01:22:02.552Z,54.60
2018-11-11T01:24:30.086Z,55.20
2018-11-11T01:26:57.990Z,55.83
2018-11-11T01:29:25.660Z,55.83
2018-11-11T01:31:53.199Z,58.07
2018-11-11T01:34:20.851Z,55.23
2018-11-11T01:36:48.305Z,53.63
2018-11-11T01:39:15.935Z,55.73
2018-11-11T01:41:43.721Z,53.80
2018-11-11T01:44:11.712Z,55.60
2018-11-11T01:46:39.421Z,53.23
2018-11-11T01:49:06.956Z,56.00
2018-11-11T01:51:34.614Z,54.87
2018-11-11T01:54:02.225Z,52.37
2018-11-11T01:56:29.902Z,54.17
2018-11-11T01:58:57.650Z,52.97
2018-11-11T02:01:25.576Z,51.43
2018-11-11T02:03:53.431Z,48.47
2018-11-11T02:06:21.150Z,48.87
2018-11-11T02:08:49.013Z,46.87
2018-11-11T02:11:16.932Z,48.43
2018-11-11T02:13:44.656Z,48.00
2018-11-11T02:16:12.401Z,48.93
2018-11-11T02:18:40.191Z,51.13
2018-11-11T02:21:07.945Z,50.93
2018-11-11T02:23:35.410Z,50.57
2018-11-11T02:26:04.391Z,49.90
2018-11-11T02:28:32.006Z,51.97
2018-11-11T02:30:59.621Z,49.90
2018-11-11T02:33:27.223Z,52.70
2018-11-11T02:35:54.802Z,52.77
2018-11-11T02:38:22.523Z,53.20
2018-11-11T02:40:50.299Z,52.77
2018-11-11T02:43:17.874Z,53.90
2018-11-11T02:45:45.469Z,52.03
2018-11-11T02:48:13.204Z,53.73
2018-11-11T02:50:40.993Z,51.50
2018-11-11T02:53:08.580Z,51.10
2018-11-11T02:55:36.322Z,51.13
2018-11-11T02:58:03.994Z,53.10
2018-11-11T03:00:31.509Z,53.87
2018-11-11T03:03:00.174Z,53.40
2018-11-11T03:05:27.774Z,55.03
2018-11-11T03:07:55.346Z,52.40
2018-11-11T03:10:23.205Z,53.10
2018-11-11T03:12:51.250Z,51.67
2018-11-11T03:15:19.330Z,53.00
2018-11-11T03:17:46.950Z,52.80
2018-11-11T03:20:15.303Z,52.23
2018-11-11T03:22:42.842Z,53.30
2018-11-11T03:25:11.741Z,51.73
2018-11-11T03:27:39.757Z,51.87
2018-11-11T03:30:08.956Z,52.20
2018-11-11T03:32:36.889Z,51.87
2018-11-11T03:35:06.138Z,51.93
2018-11-11T03:37:33.636Z,52.90
2018-11-11T03:40:01.271Z,50.13
2018-11-11T03:42:28.830Z,52.40
2018-11-11T03:44:56.472Z,52.33
2018-11-11T03:47:24.243Z,49.53
2018-11-11T03:49:51.802Z,49.90
2018-11-11T03:52:19.533Z,50.53
2018-11-11T03:54:47.109Z,52.17
2018-11-11T03:57:14.702Z,52.50
2018-11-11T03:59:42.392Z,50.70
2018-11-11T04:02:09.954Z,51.03
2018-11-11T04:04:37.551Z,51.40
2018-11-11T04:07:05.211Z,51.47
2018-11-11T04:09:33.012Z,51.90
2018-11-11T04:12:00.763Z,50.97
2018-11-11T04:14:28.403Z,50.57
2018-11-11T04:16:56.209Z,50.67
2018-11-11T04:19:23.793Z,49.53
2018-11-11T04:21:51.692Z,48.53
2018-11-11T04:24:19.991Z,49.73
2018-11-11T04:26:47.593Z,49.27
2018-11-11T04:29:15.330Z,49.23
2018-11-11T04:31:43.085Z,48.30
2018-11-11T04:34:10.702Z,47.77
2018-11-11T04:36:38.375Z,48.57
2018-11-11T04:39:08.516Z,48.67
2018-11-11T04:41:36.194Z,49.43
2018-11-11T04:44:03.932Z,46.47
2018-11-11T04:46:31.833Z,47.07
2018-11-11T04:48:59.429Z,48.53
2018-11-11T04:51:26.995Z,49.07
2018-11-11T04:53:54.566Z,49.77
2018-11-11T04:56:22.166Z,49.53
2018-11-11T04:58:49.891Z,48.23
2018-11-11T05:01:17.425Z,48.57
2018-11-11T05:03:44.934Z,47.93
2018-11-11T05:06:12.666Z,48.87
2018-11-11T05:08:40.282Z,49.47
2018-11-11T05:11:07.898Z,49.17
2018-11-11T05:13:35.519Z,49.10
2018-11-11T05:16:03.154Z,50.13
2018-11-11T05:18:30.953Z,48.30
2018-11-11T05:20:58.613Z,48.23
2018-11-11T05:23:25.826Z,48.43
2018-11-11T05:25:53.024Z,48.33
2018-11-11T05:28:20.152Z,47.47
2018-11-11T05:30:47.342Z,48.30
2018-11-11T05:33:14.468Z,48.63
2018-11-11T05:35:41.589Z,47.43
2018-11-11T05:38:08.754Z,48.50
2018-11-11T05:40:35.896Z,45.60
2018-11-11T05:43:03.106Z,47.77
2018-11-11T05:45:30.276Z,46.13
2018-11-11T05:47:57.406Z,45.00
2018-11-11T05:50:24.529Z,44.57
2018-11-11T05:52:51.702Z,46.50
2018-11-11T05:55:18.845Z,45.13
2018-11-11T05:57:45.972Z,47.37
2018-11-11T06:00:14.392Z,46.63
2018-11-11T06:02:41.624Z,47.20
2018-11-11T06:05:10.316Z,48.40
2018-11-11T06:07:37.965Z,47.77
2018-11-11T06:10:06.591Z,46.80
2018-11-11T06:12:37.310Z,47.17
2018-11-11T06:15:06.213Z,48.07
2018-11-11T06:17:33.384Z,47.23
2018-11-11T06:20:00.581Z,46.33
2018-11-11T06:22:27.860Z,47.90
2018-11-11T06:24:56.500Z,47.17
2018-11-11T06:27:23.768Z,47.33
2018-11-11T06:29:51.111Z,47.90
2018-11-11T06:32:21.083Z,48.00
2018-11-11T06:34:48.250Z,45.83
2018-11-11T06:37:18.400Z,48.13
2018-11-11T06:39:45.562Z,47.57
2018-11-11T06:42:12.740Z,48.53
2018-11-11T06:44:39.950Z,48.27
2018-11-11T06:47:07.159Z,49.23
2018-11-11T06:49:34.325Z,49.10
2018-11-11T06:52:06.789Z,48.90
2018-11-11T06:54:34.620Z,48.03
2018-11-11T06:57:04.003Z,47.43
2018-11-11T06:59:31.233Z,48.23
2018-11-11T07:01:58.424Z,49.50
2018-11-11T07:04:25.609Z,49.50
2018-11-11T07:06:52.772Z,48.07
2018-11-11T07:09:22.044Z,50.63
2018-11-11T07:11:49.173Z,48.80
2018-11-11T07:14:16.353Z,47.43
2018-11-11T07:16:43.474Z,48.80
2018-11-11T07:19:10.606Z,48.70
2018-11-11T07:21:37.784Z,50.13
2018-11-11T07:24:05.004Z,49.53
2018-11-11T07:26:32.161Z,51.07
2018-11-11T07:28:59.432Z,50.10
2018-11-11T07:31:26.607Z,52.27
2018-11-11T07:33:53.737Z,51.67
2018-11-11T07:36:20.966Z,52.50
2018-11-11T07:38:48.115Z,52.60
2018-11-11T07:41:15.244Z,52.57
2018-11-11T07:43:42.555Z,51.80
2018-11-11T07:46:09.702Z,50.60
2018-11-11T07:48:36.873Z,49.83
2018-11-11T07:51:04.154Z,49.73
2018-11-11T07:53:31.307Z,50.67
2018-11-11T07:55:58.432Z,52.43
2018-11-11T07:58:25.701Z,54.43
2018-11-11T08:00:52.802Z,54.10
2018-11-11T08:03:19.993Z,53.30
2018-11-11T08:05:47.190Z,52.17
2018-11-11T08:08:14.320Z,52.30
2018-11-11T08:10:53.106Z,49.93
2018-11-11T08:13:20.201Z,51.53
2018-11-11T08:15:47.370Z,52.53
2018-11-11T08:18:14.590Z,49.47
2018-11-11T08:20:41.794Z,53.37
2018-11-11T08:23:08.931Z,51.20
2018-11-11T08:25:36.196Z,53.47
2018-11-11T08:28:03.360Z,52.10
2018-11-11T08:30:31.206Z,51.67
2018-11-11T08:32:58.426Z,51.57
2018-11-11T08:35:25.584Z,52.20
2018-11-11T08:37:52.740Z,50.13
2018-11-11T08:40:19.944Z,51.37
2018-11-11T08:42:47.138Z,53.03
2018-11-11T08:45:14.695Z,52.37
2018-11-11T08:47:42.887Z,53.47
2018-11-11T08:50:11.905Z,51.40
2018-11-11T08:52:39.860Z,50.17
2018-11-11T08:55:08.217Z,51.27
2018-11-11T08:57:35.820Z,49.03
2018-11-11T09:00:02.985Z,47.70
2018-11-11T09:02:30.159Z,50.47
2018-11-11T09:04:57.377Z,51.20
2018-11-11T09:07:24.554Z,52.57
2018-11-11T09:09:51.725Z,49.67
2018-11-11T09:12:18.864Z,50.60
2018-11-11T09:14:46.016Z,50.80
2018-11-11T09:17:13.212Z,50.80
2018-11-11T09:19:40.442Z,48.33
2018-11-11T09:22:07.653Z,47.87
2018-11-11T09:24:34.861Z,48.77
2018-11-11T09:27:01.981Z,46.63
2018-11-11T09:29:29.222Z,47.37
2018-11-11T09:31:56.358Z,49.73
2018-11-11T09:34:23.485Z,48.93
2018-11-11T09:36:50.605Z,48.17
2018-11-11T09:39:17.804Z,51.20
2018-11-11T09:41:44.924Z,50.13
2018-11-11T09:44:12.041Z,48.80
2018-11-11T09:46:39.257Z,49.83
2018-11-11T09:49:06.381Z,50.00
2018-11-11T09:51:33.507Z,48.27
2018-11-11T09:54:00.920Z,48.20
2018-11-11T09:56:28.048Z,45.07
2018-11-11T09:58:55.175Z,48.50
2018-11-11T10:01:22.369Z,47.43
2018-11-11T10:03:54.524Z,47.03
2018-11-11T10:06:27.584Z,44.93
2018-11-11T10:08:59.493Z,48.03
2018-11-11T10:12:02.521Z,44.47
2018-11-11T10:15:10.513Z,45.80
2018-11-11T10:18:01.911Z,43.07
2018-11-11T10:20:34.768Z,43.67
2018-11-11T10:24:05.228Z,42.80
2018-11-11T10:26:36.248Z,42.87
2018-11-11T10:29:06.071Z,42.90
2018-11-11T10:31:42.513Z,41.83
2018-11-11T10:34:44.889Z,41.03
2018-11-11T10:37:18.989Z,41.97
2018-11-11T10:40:24.769Z,42.97
2018-11-11T10:42:58.213Z,41.27
2018-11-11T10:45:39.762Z,42.33
2018-11-11T10:48:09.035Z,41.63
2018-11-11T10:50:41.825Z,45.00
2018-11-11T10:53:08.945Z,44.27
2018-11-11T10:55:36.078Z,42.33
2018-11-11T10:58:03.257Z,44.07
2018-11-11T11:00:36.284Z,43.97
2018-11-11T11:03:08.041Z,42.07
2018-11-11T11:05:35.190Z,42.80
2018-11-11T11:08:02.297Z,43.30
2018-11-11T11:10:29.524Z,45.13
2018-11-11T11:12:56.689Z,42.53
2018-11-11T11:15:23.826Z,43.17
2018-11-11T11:17:51.012Z,43.23
2018-11-11T11:20:19.228Z,43.67
2018-11-11T11:22:46.399Z,42.50
2018-11-11T11:25:13.626Z,40.50
2018-11-11T11:27:41.198Z,39.93
2018-11-11T11:30:10.107Z,39.60
2018-11-11T11:32:37.301Z,37.40
2018-11-11T11:35:05.261Z,36.60
2018-11-11T11:37:32.385Z,35.27
2018-11-11T11:39:59.544Z,36.00
2018-11-11T11:42:26.664Z,36.47
2018-11-11T11:44:53.801Z,35.63
2018-11-11T11:47:21.030Z,38.07
2018-11-11T11:49:48.247Z,36.43
2018-11-11T11:52:15.414Z,36.17
2018-11-11T11:54:42.601Z,35.77
2018-11-11T11:57:09.756Z,36.80
2018-11-11T11:59:36.885Z,36.13
2018-11-11T12:02:04.602Z,37.67
2018-11-11T12:04:32.755Z,37.03
2018-11-11T12:06:59.897Z,38.37
2018-11-11T12:09:27.073Z,40.87
2018-11-11T12:11:54.242Z,41.23
2018-11-11T12:14:21.401Z,42.60
2018-11-11T12:16:48.697Z,41.37
2018-11-11T12:19:15.832Z,41.73
2018-11-11T12:21:42.985Z,40.90
2018-11-11T12:24:10.193Z,43.30
2018-11-11T12:26:37.333Z,41.80
2018-11-11T12:29:04.601Z,42.83
2018-11-11T12:31:31.802Z,43.33
2018-11-11T12:33:58.950Z,43.60
2018-11-11T12:36:26.089Z,44.90
2018-11-11T12:38:53.334Z,47.33
2018-11-11T12:41:20.463Z,46.07
2018-11-11T12:43:47.600Z,43.50
2018-11-11T12:46:14.812Z,42.47
2018-11-11T12:48:41.956Z,43.70
2018-11-11T12:51:09.097Z,42.50
2018-11-11T12:53:36.314Z,42.73
2018-11-11T12:56:03.456Z,39.33
2018-11-11T12:58:30.601Z,39.37
2018-11-11T13:00:57.843Z,37.20
2018-11-11T13:03:25.038Z,38.10
2018-11-11T13:05:52.248Z,37.73
2018-11-11T13:08:19.436Z,36.83
2018-11-11T13:10:46.597Z,36.40
2018-11-11T13:13:13.740Z,37.90
2018-11-11T13:15:40.998Z,37.63
2018-11-11T13:18:08.092Z,35.63
2018-11-11T13:20:35.268Z,34.13
2018-11-11T13:23:02.616Z,33.03
2018-11-11T13:25:29.657Z,31.10
2018-11-11T13:27:56.801Z,29.97
2018-11-11T13:30:23.988Z,31.50
2018-11-11T13:32:52.156Z,30.47
2018-11-11T13:35:19.304Z,29.70
2018-11-11T13:37:46.591Z,29.77
2018-11-11T13:40:15.261Z,29.10
2018-11-11T13:42:42.501Z,28.97
2018-11-11T13:45:12.501Z,27.80
2018-11-11T13:47:39.788Z,27.60
2018-11-11T13:50:09.651Z,29.20
2018-11-11T13:52:36.840Z,27.43
2018-11-11T13:55:05.289Z,25.67
2018-11-11T13:57:32.453Z,27.07
2018-11-11T13:59:59.722Z,27.73
2018-11-11T14:02:26.845Z,27.77
2018-11-11T14:04:54.081Z,29.27
2018-11-11T14:07:21.268Z,28.37
2018-11-11T14:09:48.574Z,27.47
2018-11-11T14:12:15.730Z,26.57
2018-11-11T14:14:44.018Z,26.93
2018-11-11T14:17:11.285Z,26.97
2018-11-11T14:19:39.556Z,25.80
2018-11-11T14:22:06.743Z,24.47
2018-11-11T14:24:33.973Z,24.57
2018-11-11T14:27:01.095Z,24.67
2018-11-11T14:29:28.389Z,24.50
2018-11-11T14:31:55.782Z,23.77
2018-11-11T14:34:23.055Z,23.70
2018-11-11T14:36:50.268Z,22.80
2018-11-11T14:39:17.433Z,23.37
2018-11-11T14:41:44.833Z,21.30
2018-11-11T14:44:12.156Z,20.37
2018-11-11T14:46:40.218Z,21.43
2018-11-11T14:49:07.983Z,18.77
2018-11-11T14:51:35.411Z,19.20
2018-11-11T14:54:02.669Z,18.80
2018-11-11T14:56:30.010Z,18.53
2018-11-11T14:58:57.381Z,19.43
2018-11-11T15:01:24.431Z,17.67
2018-11-11T15:03:51.656Z,19.00
2018-11-11T15:06:18.861Z,18.00
2018-11-11T15:08:46.001Z,17.90
2018-11-11T15:11:13.159Z,18.47
2018-11-11T15:13:40.352Z,18.63
2018-11-11T15:16:07.563Z,16.90
2018-11-11T15:18:35.798Z,16.73
2018-11-11T15:21:03.104Z,17.47
2018-11-11T15:23:30.275Z,17.70
2018-11-11T15:25:57.448Z,19.00
2018-11-11T15:28:24.669Z,19.00
2018-11-11T15:30:51.999Z,20.80
2018-11-11T15:33:19.308Z,21.00
2018-11-11T15:35:46.559Z,21.53
2018-11-11T15:38:13.742Z,22.23
2018-11-11T15:40:40.897Z,21.67
2018-11-11T15:43:10.230Z,21.30
2018-11-11T15:45:37.428Z,22.17
2018-11-11T15:48:05.098Z,22.17
2018-11-11T15:50:33.162Z,20.40
2018-11-11T15:53:02.456Z,19.73
2018-11-11T15:55:31.020Z,20.63
2018-11-11T15:57:58.383Z,21.53
2018-11-11T16:00:26.929Z,20.97
2018-11-11T16:02:54.137Z,22.03
2018-11-11T16:05:21.518Z,22.00
2018-11-11T16:07:49.716Z,22.33
2018-11-11T16:10:18.463Z,20.50
2018-11-11T16:12:46.480Z,21.63
2018-11-11T16:15:17.548Z,21.33
2018-11-11T16:17:45.972Z,23.10
2018-11-11T16:20:14.724Z,23.67
2018-11-11T16:22:43.295Z,23.60
2018-11-11T16:25:11.032Z,24.53
2018-11-11T16:27:39.215Z,23.63
2018-11-11T16:30:08.942Z,24.33
2018-11-11T16:32:36.262Z,24.10
2018-11-11T16:35:03.821Z,24.77
2018-11-11T16:37:31.086Z,23.17
2018-11-11T16:39:58.406Z,24.30
2018-11-11T16:42:25.583Z,24.87
2018-11-11T16:44:53.253Z,21.93
2018-11-11T16:47:20.537Z,23.63
2018-11-11T16:49:47.709Z,22.30
2018-11-11T16:52:14.956Z,22.73
2018-11-11T16:54:42.118Z,24.10
2018-11-11T16:57:09.278Z,23.37
2018-11-11T16:59:36.473Z,24.87
2018-11-11T17:02:03.861Z,22.87
2018-11-11T17:04:31.143Z,23.47
2018-11-11T17:06:59.374Z,23.10
2018-11-11T17:09:26.594Z,22.13
2018-11-11T17:11:53.759Z,22.47
2018-11-11T17:14:21.033Z,22.57
2018-11-11T17:16:48.176Z,23.77
2018-11-11T17:19:15.334Z,23.87
2018-11-11T17:21:42.644Z,24.03
2018-11-11T17:24:09.828Z,21.40
2018-11-11T17:26:36.969Z,21.70
2018-11-11T17:29:04.139Z,19.93
2018-11-11T17:31:31.380Z,21.83
2018-11-11T17:33:58.669Z,22.30
2018-11-11T17:36:25.858Z,20.57
2018-11-11T17:38:53.448Z,20.70
2018-11-11T17:41:20.686Z,18.77
2018-11-11T17:43:47.816Z,19.00
2018-11-11T17:46:15.087Z,19.07
2018-11-11T17:48:42.349Z,18.50
2018-11-11T17:51:09.494Z,19.73
2018-11-11T17:53:36.788Z,18.83
2018-11-11T17:56:04.223Z,17.53
2018-11-11T17:58:31.356Z,17.57
2018-11-11T18:00:59.055Z,17.33
2018-11-11T18:03:26.427Z,17.47
2018-11-11T18:05:53.669Z,16.50
2018-11-11T18:08:20.993Z,15.97
2018-11-11T18:10:48.232Z,15.50
2018-11-11T18:13:15.395Z,14.90
2018-11-11T18:15:42.596Z,14.63
2018-11-11T18:18:09.740Z,14.33
2018-11-11T18:20:36.905Z,14.20
2018-11-11T18:23:04.358Z,14.80
2018-11-11T18:25:31.510Z,13.77
2018-11-11T18:27:58.936Z,13.90
2018-11-11T18:30:30.111Z,14.73
2018-11-11T18:32:57.250Z,14.43
2018-11-11T18:35:24.483Z,14.43
2018-11-11T18:37:51.823Z,14.67
2018-11-11T18:40:21.234Z,16.17
2018-11-11T18:42:48.382Z,16.33
2018-11-11T18:45:18.828Z,15.03
2018-11-11T18:47:46.769Z,14.43
2018-11-11T18:50:16.393Z,14.43
2018-11-11T18:52:43.813Z,14.60
2018-11-11T18:55:11.492Z,16.10
2018-11-11T18:57:38.960Z,15.20
2018-11-11T19:00:12.285Z,16.50
2018-11-11T19:02:39.517Z,15.73
2018-11-11T19:05:08.042Z,14.57
2018-11-11T19:07:35.248Z,14.10
2018-11-11T19:10:02.527Z,12.70
2018-11-11T19:12:29.636Z,13.03
2018-11-11T19:14:56.845Z,14.40
2018-11-11T19:17:23.985Z,14.53
2018-11-11T19:19:51.136Z,15.90
2018-11-11T19:22:18.324Z,15.03
2018-11-11T19:24:45.493Z,15.00
2018-11-11T19:27:12.645Z,15.10
2018-11-11T19:29:39.864Z,16.60
2018-11-11T19:32:07.072Z,16.33
2018-11-11T19:34:34.362Z,15.13
2018-11-11T19:37:01.625Z,15.63
2018-11-11T19:39:28.809Z,15.80
2018-11-11T19:41:56.099Z,16.40
2018-11-11T19:44:23.688Z,16.33
2018-11-11T19:46:51.050Z,17.37
2018-11-11T19:49:18.256Z,15.80
2018-11-11T19:51:45.564Z,16.03
2018-11-11T19:54:12.709Z,15.73
2018-11-11T19:56:40.468Z,15.90
2018-11-11T19:59:07.941Z,15.70
2018-11-11T20:01:36.514Z,14.90
2018-11-11T20:04:04.066Z,15.30
2018-11-11T20:06:31.329Z,14.97
2018-11-11T20:08:58.473Z,14.90
2018-11-11T20:11:25.751Z,15.43
2018-11-11T20:13:53.257Z,14.07
2018-11-11T20:16:20.552Z,15.00
2018-11-11T20:18:47.745Z,15.07
2018-11-11T20:21:14.956Z,15.23
2018-11-11T20:23:42.184Z,16.23
2018-11-11T20:26:09.350Z,15.43
2018-11-11T20:28:36.561Z,16.20
2018-11-11T20:31:03.881Z,15.67
2018-11-11T20:33:31.388Z,14.13
2018-11-11T20:35:59.322Z,14.40
2018-11-11T20:38:26.545Z,13.97
2018-11-11T20:40:53.737Z,14.80
2018-11-11T20:43:22.077Z,14.27
2018-11-11T20:45:49.165Z,16.23
2018-11-11T20:48:16.305Z,15.23
2018-11-11T20:50:43.513Z,15.73
2018-11-11T20:53:10.674Z,15.17
2018-11-11T20:55:37.929Z,16.27
2018-11-11T20:58:06.362Z,16.03
2018-11-11T21:00:35.999Z,14.83
2018-11-11T21:03:03.270Z,14.47
2018-11-11T21:05:30.604Z,14.27
2018-11-11T21:07:57.761Z,14.97
2018-11-11T21:10:26.105Z,14.83
2018-11-11T21:12:53.444Z,15.03
2018-11-11T21:15:21.832Z,15.13
2018-11-11T21:17:49.290Z,13.77
2018-11-11T21:20:18.136Z,15.10
2018-11-11T21:22:45.298Z,14.87
2018-11-11T21:25:12.686Z,14.53
2018-11-11T21:27:40.677Z,14.70
2018-11-11T21:30:10.380Z,16.63
2018-11-11T21:32:37.648Z,14.63
2018-11-11T21:35:04.977Z,15.77
2018-11-11T21:37:32.219Z,15.73
2018-11-11T21:39:59.457Z,15.10
2018-11-11T21:42:26.728Z,15.70
2018-11-11T21:44:54.015Z,16.23
2018-11-11T21:47:21.077Z,14.77
2018-11-11T21:49:48.469Z,15.70
2018-11-11T21:52:15.944Z,16.00
2018-11-11T21:54:43.145Z,15.33
2018-11-11T21:57:10.404Z,16.27
2018-11-11T21:59:37.554Z,15.27
2018-11-11T22:02:04.767Z,15.70
2018-11-11T22:04:32.014Z,17.50
2018-11-11T22:06:59.177Z,18.30
2018-11-11T22:09:26.341Z,17.23
2018-11-11T22:11:53.512Z,18.67
2018-11-11T22:14:20.655Z,19.00
2018-11-11T22:16:47.792Z,16.33
2018-11-11T22:19:15.001Z,16.80
2018-11-11T22:21:42.116Z,14.83
2018-11-11T22:24:09.261Z,15.00
2018-11-11T22:26:36.430Z,14.50
2018-11-11T22:29:03.616Z,15.77
2018-11-11T22:31:31.231Z,15.97
2018-11-11T22:33:58.413Z,16.73
2018-11-11T22:36:25.537Z,15.63
2018-11-11T22:38:52.669Z,15.90
2018-11-11T22:41:19.841Z,15.93
2018-11-11T22:43:46.942Z,15.70
2018-11-11T22:46:14.081Z,16.73
2018-11-11T22:48:41.276Z,15.43
2018-11-11T22:51:08.413Z,16.23
2018-11-11T22:53:35.668Z,15.17
2018-11-11T22:56:02.874Z,15.97
2018-11-11T22:58:30.009Z,14.10
2018-11-11T23:01:03.438Z,15.30
2018-11-11T23:03:30.577Z,16.47
2018-11-11T23:05:58.792Z,15.33
2018-11-11T23:08:25.994Z,15.77
2018-11-11T23:10:53.113Z,15.03
2018-11-11T23:13:20.252Z,15.30
2018-11-11T23:15:47.410Z,16.73
2018-11-11T23:18:14.545Z,15.40
2018-11-11T23:20:41.686Z,16.00
2018-11-11T23:23:08.873Z,16.00
2018-11-11T23:25:35.992Z,16.83
2018-11-11T23:28:03.122Z,15.57
2018-11-11T23:30:30.272Z,15.93
2018-11-11T23:32:57.389Z,15.50
2018-11-11T23:35:24.509Z,15.97
2018-11-11T23:37:51.707Z,15.63
2018-11-11T23:40:19.214Z,15.97
2018-11-11T23:42:46.881Z,15.13
2018-11-11T23:45:14.124Z,15.33
2018-11-11T23:47:41.273Z,14.40
2018-11-11T23:50:12.309Z,15.30
2018-11-11T23:52:39.499Z,17.53
2018-11-11T23:55:08.226Z,15.73
2018-11-11T23:57:35.461Z,15.53
